Time;durP1;ratioP1;P1;durP2;ratioP2;P2;SDS_P1;SDS_P2;PMS_P1;PMS_P2;Temp;Humidity;BMP_temperature;BMP_pressure;BME280_temperature;BME280_humidity;BME280_pressure;Samples;Min_cycle;Max_cycle;Signal;HPM_P1;HPM_P2
2020/08/25 00:01:17;;;;;;;3.8;1.7;;;;;;;16.65;80.63477;959.1778;;;;
2020/08/25 00:03:42;;;;;;;4.1;1.4;;;;;;;16.71;80.55273;959.2071;;;;
2020/08/25 00:06:07;;;;;;;5.1;1.4;;;;;;;16.62;77.74609;959.2183;;;;
2020/08/25 00:08:32;;;;;;;2.8;1.5;;;;;;;16.64;78.33398;959.2034;;;;
2020/08/25 00:10:57;;;;;;;3;1.4;;;;;;;16.59;77.77637;959.1739;;;;
2020/08/25 00:13:22;;;;;;;2.5;1.3;;;;;;;16.63;77.61914;959.2058;;;;
2020/08/25 00:15:52;;;;;;;4.5;1.4;;;;;;;16.68;77.45313;959.2023;;;;
2020/08/25 00:18:17;;;;;;;4.6;1.9;;;;;;;16.67;77.38184;959.2123;;;;
2020/08/25 00:20:42;;;;;;;2.5;1.2;;;;;;;16.67;77.42871;959.1852;;;;
2020/08/25 00:23:07;;;;;;;3;1.4;;;;;;;16.76;77.81836;959.1447;;;;
2020/08/25 00:25:32;;;;;;;2.5;1.1;;;;;;;16.81;78.47949;959.0965;;;;
2020/08/25 00:27:57;;;;;;;2.9;1.2;;;;;;;16.81;78.08301;959.0965;;;;
2020/08/25 00:30:22;;;;;;;4.3;1.4;;;;;;;16.81;77.13867;959.0989;;;;
2020/08/25 00:32:48;;;;;;;4.8;1.6;;;;;;;16.68;75.03711;959.0616;;;;
2020/08/25 00:35:13;;;;;;;3.9;1.5;;;;;;;16.7;75.97461;959.1044;;;;
2020/08/25 00:37:38;;;;;;;3.6;1.4;;;;;;;16.75;74.60449;959.1155;;;;
2020/08/25 00:40:03;;;;;;;2.4;1.3;;;;;;;16.66;75.1748;959.1077;;;;
2020/08/25 00:42:28;;;;;;;3.7;1.5;;;;;;;16.68;75.78418;959.0781;;;;
2020/08/25 00:44:53;;;;;;;4.5;1.2;;;;;;;16.69;77.04688;959.0714;;;;
2020/08/25 00:47:19;;;;;;;3.2;1.3;;;;;;;16.62;76.12402;959.0563;;;;
2020/08/25 00:49:44;;;;;;;5.5;1.5;;;;;;;16.64;76.41992;959.0815;;;;
2020/08/25 00:52:11;;;;;;;4.8;1.2;;;;;;;16.64;77.00195;959.0776;;;;
2020/08/25 00:54:36;;;;;;;4.5;1.5;;;;;;;16.62;76.89355;959.085;;;;
2020/08/25 00:57:01;;;;;;;1.6;0.9;;;;;;;16.76;76.65039;959.032;;;;
2020/08/25 00:59:26;;;;;;;4.8;1.3;;;;;;;16.73;77.81348;958.9866;;;;
2020/08/25 01:01:52;;;;;;;4.1;1.4;;;;;;;16.63;77.22363;959.0036;;;;
2020/08/25 01:04:16;;;;;;;2.8;1.3;;;;;;;16.71;77.16797;959.0499;;;;
2020/08/25 01:06:41;;;;;;;3.6;1.6;;;;;;;16.64;77.17676;959.0192;;;;
2020/08/25 01:09:07;;;;;;;3.3;1.5;;;;;;;16.55;78.16602;959.0328;;;;
2020/08/25 01:11:33;;;;;;;4;1.4;;;;;;;16.64;78.41602;959.0133;;;;
2020/08/25 01:13:58;;;;;;;3.2;1.4;;;;;;;16.65;77.9502;958.9713;;;;
2020/08/25 01:16:23;;;;;;;5.9;1.5;;;;;;;16.63;78.2627;958.9658;;;;
2020/08/25 01:18:49;;;;;;;3.6;1.4;;;;;;;16.57;78.05273;958.9568;;;;
2020/08/25 01:21:14;;;;;;;3.7;1.5;;;;;;;16.44;77.98438;958.9263;;;;
2020/08/25 01:23:40;;;;;;;3.5;1.3;;;;;;;16.4;78.94434;958.8977;;;;
2020/08/25 01:26:05;;;;;;;3.6;1.3;;;;;;;16.34;80.19434;958.9014;;;;
2020/08/25 01:28:31;;;;;;;3.4;1.3;;;;;;;16.35;79.64551;958.9398;;;;
2020/08/25 01:30:56;;;;;;;3.7;1.1;;;;;;;16.42;79.77734;958.9067;;;;
2020/08/25 01:33:25;;;;;;;5.3;1.5;;;;;;;16.43;79.56738;958.9207;;;;
2020/08/25 01:35:50;;;;;;;3.6;1.1;;;;;;;16.37;81.01563;958.8445;;;;
2020/08/25 01:38:15;;;;;;;4.1;1.2;;;;;;;16.39;80.22363;958.8335;;;;
2020/08/25 01:40:40;;;;;;;4.7;1.5;;;;;;;16.24;80.10449;958.8398;;;;
2020/08/25 01:43:05;;;;;;;4.8;1.5;;;;;;;16.23;81.02246;958.8039;;;;
2020/08/25 01:45:38;;;;;;;2.9;1.2;;;;;;;16.18;80.64258;958.8278;;;;
2020/08/25 01:48:03;;;;;;;3.3;1.4;;;;;;;16.02;81.92969;958.8261;;;;
2020/08/25 01:50:28;;;;;;;4.5;1.4;;;;;;;16.1;82.7373;958.8596;;;;
2020/08/25 01:52:53;;;;;;;2.6;1.3;;;;;;;16.16;82.58398;958.8371;;;;
2020/08/25 01:55:18;;;;;;;5.2;1.4;;;;;;;16.12;82.68066;958.8322;;;;
2020/08/25 01:57:44;;;;;;;2.5;1.3;;;;;;;16.13;83.6748;958.8273;;;;
2020/08/25 02:00:09;;;;;;;3.9;1.4;;;;;;;15.9;83.80566;958.8206;;;;
2020/08/25 02:02:34;;;;;;;3.8;1.4;;;;;;;15.92;84.24121;958.8141;;;;
2020/08/25 02:04:59;;;;;;;3.5;1.5;;;;;;;15.93;83.76367;958.8107;;;;
2020/08/25 02:07:24;;;;;;;2.7;1.4;;;;;;;16;84.03418;958.7883;;;;
2020/08/25 02:09:49;;;;;;;5.5;1.4;;;;;;;15.98;84.28711;958.7885;;;;
2020/08/25 02:12:15;;;;;;;4.3;1.4;;;;;;;16;85.44629;958.738;;;;
2020/08/25 02:14:40;;;;;;;3.7;1.4;;;;;;;15.97;86.11523;958.6847;;;;
2020/08/25 02:17:05;;;;;;;3.7;1.6;;;;;;;15.97;86.51074;958.7119;;;;
2020/08/25 02:19:31;;;;;;;3.9;1.3;;;;;;;15.9;87.58008;958.6671;;;;
2020/08/25 02:21:56;;;;;;;3.4;1.6;;;;;;;15.89;87.29688;958.6433;;;;
2020/08/25 02:24:21;;;;;;;3.7;1.6;;;;;;;15.72;86.72949;958.6864;;;;
2020/08/25 02:26:46;;;;;;;6;1.5;;;;;;;15.74;86.75781;958.6799;;;;
2020/08/25 02:29:13;;;;;;;3.4;1.5;;;;;;;15.71;85.82129;958.6577;;;;
2020/08/25 02:31:39;;;;;;;4.6;1.3;;;;;;;15.61;85.55566;958.6492;;;;
2020/08/25 02:34:04;;;;;;;3.7;1.4;;;;;;;15.62;85.84668;958.6231;;;;
2020/08/25 02:36:29;;;;;;;4.3;1.5;;;;;;;15.72;87.38184;958.531;;;;
2020/08/25 02:38:54;;;;;;;2.5;1.2;;;;;;;15.72;85.56445;958.4752;;;;
2020/08/25 02:41:19;;;;;;;2.8;1.4;;;;;;;15.84;88.27832;958.4584;;;;
2020/08/25 02:43:44;;;;;;;2.6;1.3;;;;;;;15.86;89.92676;958.4066;;;;
2020/08/25 02:46:10;;;;;;;5.1;1.4;;;;;;;15.83;88.68652;958.4249;;;;
2020/08/25 02:48:35;;;;;;;3.8;1.3;;;;;;;15.79;89.43457;958.4174;;;;
2020/08/25 02:51:00;;;;;;;3;1.4;;;;;;;15.79;88.50195;958.3984;;;;
2020/08/25 02:53:27;;;;;;;5.2;1.4;;;;;;;15.85;85.16016;958.415;;;;
2020/08/25 02:55:52;;;;;;;3.2;1.3;;;;;;;15.67;84.16797;958.3986;;;;
2020/08/25 02:58:17;;;;;;;4;1.1;;;;;;;15.79;86.25391;958.3705;;;;
2020/08/25 03:00:42;;;;;;;3.9;1.2;;;;;;;15.75;84.40527;958.365;;;;
2020/08/25 03:03:07;;;;;;;3.5;1.2;;;;;;;15.56;84.9873;958.3628;;;;
2020/08/25 03:05:33;;;;;;;4.3;1.3;;;;;;;15.63;86.3623;958.3405;;;;
2020/08/25 03:07:58;;;;;;;2.7;1.2;;;;;;;15.71;89.0918;958.3653;;;;
2020/08/25 03:10:23;;;;;;;2.7;1.4;;;;;;;15.73;89.08398;958.3535;;;;
2020/08/25 03:12:48;;;;;;;3.4;1.4;;;;;;;15.68;88.16602;958.3497;;;;
2020/08/25 03:15:13;;;;;;;6;1.4;;;;;;;15.56;86.30176;958.3169;;;;
2020/08/25 03:17:38;;;;;;;4;1.5;;;;;;;15.64;86.77148;958.2375;;;;
2020/08/25 03:20:03;;;;;;;3.4;1.4;;;;;;;15.6;89.75684;958.2509;;;;
2020/08/25 03:22:28;;;;;;;4;1.4;;;;;;;15.59;89.40332;958.2183;;;;
2020/08/25 03:24:53;;;;;;;3.9;1.4;;;;;;;15.57;90.22656;958.2527;;;;
2020/08/25 03:27:18;;;;;;;3.1;1.3;;;;;;;15.47;90.80957;958.2859;;;;
2020/08/25 03:29:44;;;;;;;3.4;1.3;;;;;;;15.41;91.19629;958.3467;;;;
2020/08/25 03:32:09;;;;;;;3.3;1.5;;;;;;;15.4;93.06641;958.354;;;;
2020/08/25 03:34:34;;;;;;;2.9;1.2;;;;;;;15.44;92.98047;958.3065;;;;
2020/08/25 03:36:59;;;;;;;4.3;1.2;;;;;;;15.4;93.75293;958.3195;;;;
2020/08/25 03:39:24;;;;;;;4;1.5;;;;;;;15.34;97.64941;958.3237;;;;
2020/08/25 03:41:49;;;;;;;4.6;1.6;;;;;;;15.4;96.70898;958.3926;;;;
2020/08/25 03:44:14;;;;;;;4.9;1.7;;;;;;;15.38;97.32129;958.309;;;;
2020/08/25 03:46:39;;;;;;;4.2;1.5;;;;;;;15.44;97.02148;958.3138;;;;
2020/08/25 03:49:04;;;;;;;5.9;1.7;;;;;;;15.34;98.5;958.2802;;;;
2020/08/25 03:51:31;;;;;;;4.4;1.5;;;;;;;15.33;97.86816;958.2532;;;;
2020/08/25 03:53:56;;;;;;;3.8;1.6;;;;;;;15.3;99.16504;958.2623;;;;
2020/08/25 03:56:21;;;;;;;3.9;1.6;;;;;;;15.17;100;958.1984;;;;
2020/08/25 03:58:46;;;;;;;3.1;1.5;;;;;;;15.13;99.00098;958.2238;;;;
2020/08/25 04:02:28;;;;;;;3.7;1.7;;;;;;;15.02;98.75293;958.2405;;;;
2020/08/25 04:04:54;;;;;;;4.5;1.8;;;;;;;15.13;100;958.2411;;;;
2020/08/25 04:07:19;;;;;;;5.2;1.7;;;;;;;15.12;100;958.2928;;;;
2020/08/25 04:09:44;;;;;;;3.8;1.6;;;;;;;15.14;100;958.269;;;;
2020/08/25 04:12:09;;;;;;;4.9;1.7;;;;;;;15.11;100;958.288;;;;
2020/08/25 04:14:34;;;;;;;3.9;1.8;;;;;;;15.12;100;958.3036;;;;
2020/08/25 04:16:59;;;;;;;3.9;1.6;;;;;;;15.04;100;958.2896;;;;
2020/08/25 04:19:24;;;;;;;4;1.9;;;;;;;15.03;100;958.2461;;;;
2020/08/25 04:21:49;;;;;;;3.6;1.8;;;;;;;15.04;100;958.2681;;;;
2020/08/25 04:24:14;;;;;;;2.9;1.4;;;;;;;15.01;100;958.2567;;;;
2020/08/25 04:26:41;;;;;;;4.9;2;;;;;;;14.94;100;958.2101;;;;
2020/08/25 04:29:06;;;;;;;4.2;2.1;;;;;;;14.88;100;958.1953;;;;
2020/08/25 04:31:31;;;;;;;3.5;1.8;;;;;;;14.99;100;958.2255;;;;
2020/08/25 04:33:56;;;;;;;4.2;1.9;;;;;;;14.96;100;958.2192;;;;
2020/08/25 04:36:22;;;;;;;5.4;2.2;;;;;;;15.04;100;958.2065;;;;
2020/08/25 04:38:47;;;;;;;4.4;2.1;;;;;;;15.02;100;958.2446;;;;
2020/08/25 04:41:12;;;;;;;5.1;2.3;;;;;;;14.99;100;958.1855;;;;
2020/08/25 04:43:39;;;;;;;4.5;2.3;;;;;;;14.94;100;958.1911;;;;
2020/08/25 04:46:07;;;;;;;4.1;2.2;;;;;;;14.97;100;958.2101;;;;
2020/08/25 04:48:32;;;;;;;5.4;2.4;;;;;;;14.94;100;958.2109;;;;
2020/08/25 04:50:57;;;;;;;4.1;2.2;;;;;;;14.92;100;958.2222;;;;
2020/08/25 04:53:22;;;;;;;7.7;2.7;;;;;;;14.91;100;958.2544;;;;
2020/08/25 04:55:47;;;;;;;3.7;2.3;;;;;;;14.89;100;958.2403;;;;
2020/08/25 04:58:12;;;;;;;4.8;2.3;;;;;;;14.88;100;958.1953;;;;
2020/08/25 05:00:38;;;;;;;4.5;2.3;;;;;;;14.92;100;958.1656;;;;
2020/08/25 05:03:04;;;;;;;3.8;2.4;;;;;;;14.9;100;958.2167;;;;
2020/08/25 05:05:29;;;;;;;4.2;2.4;;;;;;;14.87;100;958.197;;;;
2020/08/25 05:07:55;;;;;;;5.9;2.5;;;;;;;14.91;100;958.155;;;;
2020/08/25 05:10:23;;;;;;;7.5;2.7;;;;;;;14.93;100;958.1494;;;;
2020/08/25 05:12:48;;;;;;;6.9;3;;;;;;;14.91;100;958.1616;;;;
2020/08/25 05:15:13;;;;;;;5.1;2.7;;;;;;;14.98;100;958.1549;;;;
2020/08/25 05:17:41;;;;;;;4.8;2.7;;;;;;;15.04;100;958.2058;;;;
2020/08/25 05:20:13;;;;;;;6;2.8;;;;;;;14.98;100;958.2009;;;;
2020/08/25 05:22:43;;;;;;;4.3;2.8;;;;;;;15.01;100;958.2067;;;;
2020/08/25 05:25:08;;;;;;;5.3;2.8;;;;;;;15.1;100;958.2911;;;;
2020/08/25 05:27:38;;;;;;;6;2.3;;;;;;;15.05;100;958.2527;;;;
2020/08/25 05:30:03;;;;;;;6.1;2.6;;;;;;;15.13;100;958.2756;;;;
2020/08/25 05:32:28;;;;;;;3.9;2.4;;;;;;;15.01;100;958.2592;;;;
2020/08/25 05:34:53;;;;;;;6.1;2.7;;;;;;;14.96;100;958.3069;;;;
2020/08/25 05:37:20;;;;;;;7.6;2.8;;;;;;;15.05;100;958.2963;;;;
2020/08/25 05:39:45;;;;;;;4.5;2.6;;;;;;;15.02;100;958.3267;;;;
2020/08/25 05:42:11;;;;;;;4.7;2.8;;;;;;;15.01;100;958.3298;;;;
2020/08/25 05:44:39;;;;;;;4;3;;;;;;;15.15;100;958.283;;;;
2020/08/25 05:47:04;;;;;;;6.7;2.9;;;;;;;15.15;100;958.2863;;;;
2020/08/25 05:49:30;;;;;;;6.2;2.8;;;;;;;15.23;100;958.2715;;;;
2020/08/25 05:51:55;;;;;;;6.4;3;;;;;;;15.24;100;958.2903;;;;
2020/08/25 05:54:20;;;;;;;8.8;3.1;;;;;;;15.25;100;958.2112;;;;
2020/08/25 05:56:45;;;;;;;7;3.1;;;;;;;15.3;100;958.1957;;;;
2020/08/25 06:01:30;;;;;;;9.5;3.3;;;;;;;15.42;100;958.262;;;;
2020/08/25 06:03:55;;;;;;;6.5;2.9;;;;;;;15.47;100;958.2751;;;;
2020/08/25 06:06:20;;;;;;;5.7;2.8;;;;;;;15.52;100;958.2617;;;;
2020/08/25 06:08:47;;;;;;;6.7;2.8;;;;;;;15.54;100;958.2511;;;;
2020/08/25 06:11:13;;;;;;;7.3;3.3;;;;;;;15.53;100;958.2766;;;;
2020/08/25 06:13:38;;;;;;;8.1;3.1;;;;;;;15.53;100;958.3201;;;;
2020/08/25 06:16:04;;;;;;;6.3;2.9;;;;;;;15.55;100;958.2764;;;;
2020/08/25 06:18:31;;;;;;;7.2;3.3;;;;;;;15.57;100;958.3315;;;;
2020/08/25 06:20:57;;;;;;;7.1;3.3;;;;;;;15.59;100;958.2544;;;;
2020/08/25 06:23:22;;;;;;;8.3;3.4;;;;;;;15.61;100;958.2461;;;;
2020/08/25 06:25:47;;;;;;;7.4;3.1;;;;;;;15.83;100;958.2087;;;;
2020/08/25 06:28:12;;;;;;;7;2.9;;;;;;;15.94;100;958.0988;;;;
2020/08/25 06:30:37;;;;;;;5.5;2.6;;;;;;;16.03;100;958.0762;;;;
2020/08/25 06:33:02;;;;;;;5;2.6;;;;;;;16.14;100;958.098;;;;
2020/08/25 06:35:27;;;;;;;4.6;2.8;;;;;;;16.19;100;958.0952;;;;
2020/08/25 06:37:52;;;;;;;5.7;2.7;;;;;;;16.33;100;958.0261;;;;
2020/08/25 06:40:17;;;;;;;6.5;2.7;;;;;;;16.35;100;958.092;;;;
2020/08/25 06:42:43;;;;;;;5.8;2.7;;;;;;;16.52;100;958.1494;;;;
2020/08/25 06:45:08;;;;;;;3.9;2.5;;;;;;;16.58;100;958.1917;;;;
2020/08/25 06:47:35;;;;;;;5.8;2.9;;;;;;;16.62;99.17188;958.156;;;;
2020/08/25 06:50:00;;;;;;;6.4;2.8;;;;;;;16.52;94.16797;958.1403;;;;
2020/08/25 06:52:27;;;;;;;5.5;2.3;;;;;;;16.72;93.38379;958.204;;;;
2020/08/25 06:54:52;;;;;;;6;2.7;;;;;;;16.85;94.62598;958.1356;;;;
2020/08/25 06:57:17;;;;;;;6.5;2.2;;;;;;;16.94;95.25293;958.1877;;;;
2020/08/25 06:59:42;;;;;;;3.4;2.1;;;;;;;17.12;90.5;958.2184;;;;
2020/08/25 07:02:07;;;;;;;4.6;2.1;;;;;;;17.22;89.84375;958.2264;;;;
2020/08/25 07:04:32;;;;;;;6.6;2.3;;;;;;;17.36;88.72559;958.1831;;;;
2020/08/25 07:06:57;;;;;;;4.7;1.8;;;;;;;17.37;85.16211;958.2101;;;;
2020/08/25 07:09:24;;;;;;;4.5;1.9;;;;;;;17.51;83.1084;958.2336;;;;
2020/08/25 07:11:49;;;;;;;3.6;1.8;;;;;;;17.6;86.4707;958.1436;;;;
2020/08/25 07:14:15;;;;;;;6.7;2.2;;;;;;;17.65;85.43848;958.1597;;;;
2020/08/25 07:16:40;;;;;;;4.5;2.1;;;;;;;17.53;85.38184;958.1494;;;;
2020/08/25 07:19:07;;;;;;;5.7;2.2;;;;;;;17.71;88.35156;958.149;;;;
2020/08/25 07:21:33;;;;;;;4.4;1.9;;;;;;;17.75;85.99707;958.1189;;;;
2020/08/25 07:23:58;;;;;;;3.9;2.1;;;;;;;17.84;85.95508;958.2015;;;;
2020/08/25 07:26:23;;;;;;;4.8;2;;;;;;;17.92;85.77344;958.1858;;;;
2020/08/25 07:28:48;;;;;;;3.9;2;;;;;;;17.9;82.18848;958.1323;;;;
2020/08/25 07:31:13;;;;;;;6.7;2.5;;;;;;;17.93;84.94434;958.1278;;;;
2020/08/25 07:33:38;;;;;;;4.9;2.3;;;;;;;17.94;85.64746;958.0765;;;;
2020/08/25 07:36:03;;;;;;;4.4;2;;;;;;;17.95;86.03613;958.1086;;;;
2020/08/25 07:38:28;;;;;;;4.9;2;;;;;;;18.02;86.03613;958.1071;;;;
2020/08/25 07:40:53;;;;;;;4.9;2;;;;;;;18.17;81.46387;958.0408;;;;
2020/08/25 07:43:18;;;;;;;3.9;1.9;;;;;;;18.18;81.19727;958.0066;;;;
2020/08/25 07:45:43;;;;;;;4.5;2;;;;;;;18.17;76.60352;957.9731;;;;
2020/08/25 07:48:09;;;;;;;3.2;1.8;;;;;;;18.35;78.06543;958.0244;;;;
2020/08/25 07:50:34;;;;;;;4.7;1.6;;;;;;;18.35;76.90527;958.059;;;;
2020/08/25 07:53:01;;;;;;;3.6;1.6;;;;;;;18.39;78.85742;958.045;;;;
2020/08/25 07:55:27;;;;;;;4.9;1.6;;;;;;;18.47;78.73047;957.9623;;;;
2020/08/25 07:57:54;;;;;;;3.4;1.6;;;;;;;18.61;75.77832;957.9885;;;;
2020/08/25 08:00:26;;;;;;;3.3;1.5;;;;;;;18.68;74.80469;957.9865;;;;
2020/08/25 08:02:51;;;;;;;3.6;1.7;;;;;;;18.82;74.8291;957.9691;;;;
2020/08/25 08:05:17;;;;;;;2.9;1.3;;;;;;;18.87;76.28125;957.9969;;;;
2020/08/25 08:07:42;;;;;;;3.3;1.5;;;;;;;18.93;74.06152;957.991;;;;
2020/08/25 08:10:07;;;;;;;3.4;1.5;;;;;;;18.92;76.09082;957.9895;;;;
2020/08/25 08:12:32;;;;;;;3;1.3;;;;;;;18.97;76.9668;957.9624;;;;
2020/08/25 08:14:57;;;;;;;4;1.4;;;;;;;19.01;78.85254;957.9228;;;;
2020/08/25 08:17:22;;;;;;;4.3;1.8;;;;;;;19.05;75.54883;957.899;;;;
2020/08/25 08:19:47;;;;;;;2.7;1.3;;;;;;;19.13;74.6709;957.9588;;;;
2020/08/25 08:22:12;;;;;;;4.4;1.4;;;;;;;19.33;74.12891;957.9422;;;;
2020/08/25 08:24:37;;;;;;;5;1.3;;;;;;;19.06;72.87402;957.9141;;;;
2020/08/25 08:27:02;;;;;;;2.9;1.2;;;;;;;19.27;71.8291;957.9211;;;;
2020/08/25 08:29:28;;;;;;;2.9;1.1;;;;;;;19.43;68.20215;957.861;;;;
2020/08/25 08:31:53;;;;;;;3.3;1.2;;;;;;;19.55;68.06934;957.8167;;;;
2020/08/25 08:34:19;;;;;;;3.1;1.3;;;;;;;19.61;71.66113;957.8452;;;;
2020/08/25 08:36:47;;;;;;;4.5;1.6;;;;;;;19.5;67.7793;957.8895;;;;
2020/08/25 08:39:12;;;;;;;3;1.1;;;;;;;19.5;67.21484;957.8399;;;;
2020/08/25 08:41:38;;;;;;;2;1.1;;;;;;;19.65;70.42285;957.8722;;;;
2020/08/25 08:44:03;;;;;;;3.4;1.3;;;;;;;19.76;66.64355;957.9164;;;;
2020/08/25 08:46:28;;;;;;;3.6;1.3;;;;;;;19.93;67.86816;957.861;;;;
2020/08/25 08:48:53;;;;;;;2.2;1.2;;;;;;;19.99;66.71387;957.9009;;;;
2020/08/25 08:51:18;;;;;;;3.2;1.3;;;;;;;19.88;64.58105;957.8344;;;;
2020/08/25 08:53:43;;;;;;;3.3;1.2;;;;;;;19.93;65.91797;957.8036;;;;
2020/08/25 08:56:08;;;;;;;4.4;1.3;;;;;;;19.93;70.0791;957.8525;;;;
2020/08/25 08:58:35;;;;;;;4;1.3;;;;;;;20.05;69.28711;957.8995;;;;
2020/08/25 09:01:00;;;;;;;4.1;1.4;;;;;;;20.17;68.75293;957.9045;;;;
2020/08/25 09:03:25;;;;;;;5.1;1.1;;;;;;;20.32;69.52832;957.9395;;;;
2020/08/25 09:05:50;;;;;;;3.5;1.2;;;;;;;20.19;64.71973;957.9299;;;;
2020/08/25 09:08:15;;;;;;;3;1.2;;;;;;;20.3;65.34766;957.9813;;;;
2020/08/25 09:10:44;;;;;;;3.1;1.2;;;;;;;20.47;65.74805;957.9562;;;;
2020/08/25 09:13:09;;;;;;;4.5;1.2;;;;;;;20.57;65.01074;957.9498;;;;
2020/08/25 09:15:35;;;;;;;3.3;1;;;;;;;20.64;65.65723;957.9631;;;;
2020/08/25 09:18:00;;;;;;;4;1.4;;;;;;;20.72;63.53711;957.9739;;;;
2020/08/25 09:20:25;;;;;;;3.6;1.5;;;;;;;20.6;64.49805;958.0187;;;;
2020/08/25 09:22:50;;;;;;;3.5;1.4;;;;;;;20.74;63.72949;957.9518;;;;
2020/08/25 09:25:17;;;;;;;4;1.2;;;;;;;20.85;62.64941;957.9634;;;;
2020/08/25 09:27:42;;;;;;;3.1;1.4;;;;;;;20.92;63.46094;957.9666;;;;
2020/08/25 09:30:07;;;;;;;5.1;2.2;;;;;;;20.94;61.62305;957.9023;;;;
2020/08/25 09:32:32;;;;;;;2.9;1.4;;;;;;;20.93;64.66406;957.9462;;;;
2020/08/25 09:34:58;;;;;;;4.2;1.4;;;;;;;21.03;65.35059;957.9497;;;;
2020/08/25 09:37:23;;;;;;;3.4;1.1;;;;;;;21.1;62.48438;957.9349;;;;
2020/08/25 09:39:48;;;;;;;2.3;1;;;;;;;21.09;64.01465;957.9492;;;;
2020/08/25 09:42:13;;;;;;;3.7;1.4;;;;;;;21.09;60.92676;957.9252;;;;
2020/08/25 09:44:38;;;;;;;3.3;1;;;;;;;21.15;59.73242;957.8681;;;;
2020/08/25 09:47:03;;;;;;;4.6;1.3;;;;;;;21.21;62.61719;957.899;;;;
2020/08/25 09:49:28;;;;;;;3.7;1.2;;;;;;;21.14;62.86621;957.9025;;;;
2020/08/25 09:51:53;;;;;;;3.7;1.2;;;;;;;21.18;61.61133;957.8656;;;;
2020/08/25 09:54:18;;;;;;;2.7;1.1;;;;;;;21.07;60.14453;957.8253;;;;
2020/08/25 09:56:43;;;;;;;2.5;0.9;;;;;;;20.91;55.50391;957.7787;;;;
2020/08/25 09:59:08;;;;;;;3.8;1.2;;;;;;;21.16;56.95117;957.7849;;;;
2020/08/25 10:01:34;;;;;;;2.5;1;;;;;;;21.17;55.47852;957.8425;;;;
2020/08/25 10:03:59;;;;;;;2.3;1.1;;;;;;;20.97;54.35742;957.7665;;;;
2020/08/25 10:06:24;;;;;;;2.4;1;;;;;;;21.09;56.08008;957.7264;;;;
2020/08/25 10:08:49;;;;;;;3.3;0.9;;;;;;;21.31;58.08984;957.6974;;;;
2020/08/25 10:11:14;;;;;;;1.7;0.9;;;;;;;21.3;58.71289;957.7216;;;;
2020/08/25 10:13:39;;;;;;;4.4;1.2;;;;;;;21.1;56.55371;957.7393;;;;
2020/08/25 10:16:04;;;;;;;3.2;1.3;;;;;;;21.18;56.39844;957.714;;;;
2020/08/25 10:18:29;;;;;;;2.9;1.1;;;;;;;21.18;56.81055;957.7316;;;;
2020/08/25 10:20:54;;;;;;;2.4;1;;;;;;;21.33;57.67969;957.7441;;;;
2020/08/25 10:23:19;;;;;;;4.1;1.1;;;;;;;21.28;58.15723;957.7338;;;;
2020/08/25 10:25:45;;;;;;;3;1.1;;;;;;;21.15;53.73145;957.7555;;;;
2020/08/25 10:28:10;;;;;;;2.1;0.8;;;;;;;21.23;53.57422;957.7516;;;;
2020/08/25 10:30:35;;;;;;;2.3;1;;;;;;;21.04;54.07031;957.6727;;;;
2020/08/25 10:33:00;;;;;;;2.5;1.2;;;;;;;21.16;54.78125;957.5809;;;;
2020/08/25 10:35:33;;;;;;;4.1;1.1;;;;;;;21.34;54.79199;957.5432;;;;
2020/08/25 10:37:58;;;;;;;3.1;1;;;;;;;21.19;54.59668;957.5249;;;;
2020/08/25 10:40:23;;;;;;;2.9;1.1;;;;;;;21.08;54.1582;957.5042;;;;
2020/08/25 10:42:48;;;;;;;2.4;1;;;;;;;21.33;55.89844;957.4738;;;;
2020/08/25 10:45:13;;;;;;;3.3;1;;;;;;;21.22;56.07324;957.5067;;;;
2020/08/25 10:47:38;;;;;;;4;1.1;;;;;;;21.3;54.69141;957.5359;;;;
2020/08/25 10:50:03;;;;;;;4.9;1.4;;;;;;;21.2;54.70313;957.4581;;;;
2020/08/25 10:52:28;;;;;;;3.4;1;;;;;;;21.41;54.70508;957.4976;;;;
2020/08/25 10:54:54;;;;;;;3.5;1;;;;;;;21.46;53.04688;957.5197;;;;
2020/08/25 10:57:19;;;;;;;3.8;1.1;;;;;;;21.29;52.88672;957.4366;;;;
2020/08/25 10:59:45;;;;;;;3;1.1;;;;;;;21.14;53.36328;957.3917;;;;
2020/08/25 11:02:11;;;;;;;2.4;0.9;;;;;;;21.42;53.60938;957.4089;;;;
2020/08/25 11:04:37;;;;;;;1.8;1;;;;;;;21.63;56.03125;957.3425;;;;
2020/08/25 11:07:02;;;;;;;3.9;1.1;;;;;;;21.48;55.38672;957.3384;;;;
2020/08/25 11:09:27;;;;;;;3.1;1.1;;;;;;;21.64;54.4375;957.3762;;;;
2020/08/25 11:11:52;;;;;;;2.7;1;;;;;;;21.59;53.25293;957.3259;;;;
2020/08/25 11:14:17;;;;;;;2.3;1;;;;;;;21.7;52.99316;957.1905;;;;
2020/08/25 11:16:43;;;;;;;1.9;0.7;;;;;;;21.68;52.93359;957.1725;;;;
2020/08/25 11:19:08;;;;;;;4.2;1;;;;;;;21.57;50.90137;957.1077;;;;
2020/08/25 11:21:33;;;;;;;2.5;1.1;;;;;;;21.86;49.96582;957.0837;;;;
2020/08/25 11:23:58;;;;;;;3.4;1.1;;;;;;;22;51.58887;957.1002;;;;
2020/08/25 11:26:23;;;;;;;2.5;1.1;;;;;;;21.76;49.60156;957.0549;;;;
2020/08/25 11:28:50;;;;;;;3.4;0.9;;;;;;;21.85;50.83789;957.026;;;;
2020/08/25 11:31:20;;;;;;;3.5;1.2;;;;;;;21.99;52.27246;957.0352;;;;
2020/08/25 11:33:45;;;;;;;2;0.8;;;;;;;22.05;51.34668;957.0872;;;;
2020/08/25 11:36:10;;;;;;;3;1.2;;;;;;;22.18;50.06152;957.115;;;;
2020/08/25 11:38:35;;;;;;;4.4;1.1;;;;;;;22.19;49.29395;957.098;;;;
2020/08/25 11:41:01;;;;;;;2.5;0.8;;;;;;;22.14;49.73828;957.063;;;;
2020/08/25 11:43:26;;;;;;;2.8;1;;;;;;;22.11;50.73828;957.1353;;;;
2020/08/25 11:45:51;;;;;;;2.3;1;;;;;;;22;50.56055;957.1891;;;;
2020/08/25 11:48:16;;;;;;;3.4;1;;;;;;;22.02;50.02051;957.1869;;;;
2020/08/25 11:50:41;;;;;;;3.3;0.9;;;;;;;22.25;49.78613;957.1675;;;;
2020/08/25 11:53:06;;;;;;;2.1;0.9;;;;;;;22.38;50.08398;957.0876;;;;
2020/08/25 11:55:31;;;;;;;3;1.1;;;;;;;22.41;52.65234;956.9521;;;;
2020/08/25 11:57:56;;;;;;;2.9;1;;;;;;;22.43;53.43555;956.9802;;;;
2020/08/25 12:06:51;;;;;;;3.2;1.2;;;;;;;22.63;48.74023;956.972;;;;
2020/08/25 12:09:16;;;;;;;3.2;1;;;;;;;22.59;48.01367;956.9734;;;;
2020/08/25 12:11:42;;;;;;;3.3;0.6;;;;;;;22.63;49.23633;957.037;;;;
2020/08/25 12:14:07;;;;;;;2.7;1;;;;;;;22.57;50.51953;957.0148;;;;
2020/08/25 12:16:32;;;;;;;1.6;0.8;;;;;;;22.54;48.67188;956.9824;;;;
2020/08/25 12:18:57;;;;;;;3.6;0.9;;;;;;;22.52;49.94629;956.9872;;;;
2020/08/25 12:21:22;;;;;;;1.7;0.9;;;;;;;22.13;48.11719;956.9625;;;;
2020/08/25 12:23:48;;;;;;;2.7;0.9;;;;;;;22.34;49.90234;956.8932;;;;
2020/08/25 12:26:13;;;;;;;3.6;0.9;;;;;;;22.42;48.24414;956.8418;;;;
2020/08/25 12:28:38;;;;;;;3.5;0.8;;;;;;;22.65;50.24512;956.8585;;;;
2020/08/25 12:31:03;;;;;;;1.6;0.7;;;;;;;22.82;50.45215;956.7508;;;;
2020/08/25 12:33:28;;;;;;;2;0.9;;;;;;;22.95;47.27246;956.8147;;;;
2020/08/25 12:35:53;;;;;;;2;0.9;;;;;;;22.85;47.15527;956.7224;;;;
2020/08/25 12:38:18;;;;;;;2.9;0.9;;;;;;;23.02;48.4502;956.7109;;;;
2020/08/25 12:40:46;;;;;;;2.1;0.8;;;;;;;22.81;47.76465;956.7184;;;;
2020/08/25 12:43:11;;;;;;;2.5;0.8;;;;;;;22.93;51.06934;956.7703;;;;
2020/08/25 12:45:37;;;;;;;2.9;0.8;;;;;;;22.88;49.69141;956.7462;;;;
2020/08/25 12:48:02;;;;;;;2;0.7;;;;;;;23.09;49.97461;956.6727;;;;
2020/08/25 12:50:27;;;;;;;1.5;0.7;;;;;;;23.16;48.28809;956.6973;;;;
2020/08/25 12:52:52;;;;;;;1.3;0.8;;;;;;;23.29;48.14941;956.6922;;;;
2020/08/25 12:55:17;;;;;;;2.5;1;;;;;;;23.51;49.38184;956.6128;;;;
2020/08/25 12:57:42;;;;;;;2.5;0.8;;;;;;;23.59;47.23242;956.6382;;;;
2020/08/25 13:00:07;;;;;;;2.9;0.8;;;;;;;23.62;48.25586;956.6487;;;;
2020/08/25 13:02:32;;;;;;;2.1;0.9;;;;;;;23.45;46.54199;956.6108;;;;
2020/08/25 13:04:57;;;;;;;2;0.9;;;;;;;23.15;45.78809;956.5948;;;;
2020/08/25 13:07:23;;;;;;;2.2;1;;;;;;;23.36;48.9502;956.5195;;;;
2020/08/25 13:09:48;;;;;;;1.9;1;;;;;;;23.39;48.65723;956.4268;;;;
2020/08/25 13:12:13;;;;;;;2.4;0.8;;;;;;;23.64;48.15137;956.3878;;;;
2020/08/25 13:14:38;;;;;;;2.4;0.8;;;;;;;23.72;48.46777;956.3431;;;;
2020/08/25 13:17:03;;;;;;;3.1;1;;;;;;;23.65;48.41309;956.3606;;;;
2020/08/25 13:19:28;;;;;;;2.7;1.1;;;;;;;23.57;47.91797;956.3603;;;;
2020/08/25 13:21:53;;;;;;;1.4;0.7;;;;;;;23.52;49.52441;956.2809;;;;
2020/08/25 13:24:18;;;;;;;2.2;0.9;;;;;;;23.64;46.8584;956.2089;;;;
2020/08/25 13:26:43;;;;;;;1.2;0.7;;;;;;;23.66;46.14941;956.177;;;;
2020/08/25 13:29:09;;;;;;;2.1;0.7;;;;;;;23.57;45.25098;956.1906;;;;
2020/08/25 13:31:34;;;;;;;1.5;0.8;;;;;;;23.59;46.2373;956.1653;;;;
2020/08/25 13:34:00;;;;;;;1.4;0.8;;;;;;;23.63;46.81055;956.1789;;;;
2020/08/25 13:36:25;;;;;;;1.5;0.9;;;;;;;23.81;46.50879;956.1069;;;;
2020/08/25 13:38:50;;;;;;;2.9;0.8;;;;;;;23.89;48.71094;956.0597;;;;
2020/08/25 13:41:16;;;;;;;2.9;0.9;;;;;;;24.07;48.20898;956.0474;;;;
2020/08/25 13:43:41;;;;;;;1.4;0.9;;;;;;;23.96;47.31934;956.0069;;;;
2020/08/25 13:46:06;;;;;;;2.1;0.7;;;;;;;23.8;45.67773;956.0112;;;;
2020/08/25 13:48:31;;;;;;;2;0.8;;;;;;;23.73;44.80469;956.0273;;;;
2020/08/25 13:50:56;;;;;;;1.7;0.8;;;;;;;23.81;45.48828;955.9893;;;;
2020/08/25 13:53:21;;;;;;;1.4;0.8;;;;;;;23.71;45.96484;955.9417;;;;
2020/08/25 13:55:46;;;;;;;3;0.8;;;;;;;23.88;48.59277;955.9374;;;;
2020/08/25 13:58:11;;;;;;;1.6;0.7;;;;;;;23.97;46.15723;955.8826;;;;
2020/08/25 14:00:37;;;;;;;2.9;0.7;;;;;;;23.71;45.01563;955.7537;;;;
2020/08/25 14:03:02;;;;;;;1.2;0.7;;;;;;;23.68;46.23438;955.6013;;;;
2020/08/25 14:05:27;;;;;;;2.7;0.8;;;;;;;23.56;47.22949;955.6043;;;;
2020/08/25 14:07:53;;;;;;;1.4;0.7;;;;;;;23.73;47.69727;955.6241;;;;
2020/08/25 14:10:18;;;;;;;2;0.9;;;;;;;23.59;46.56836;955.7388;;;;
2020/08/25 14:12:43;;;;;;;2.6;0.9;;;;;;;23.47;45.66699;955.8664;;;;
2020/08/25 14:15:08;;;;;;;1.2;0.8;;;;;;;23.63;46.90625;955.8137;;;;
2020/08/25 14:17:34;;;;;;;1.8;0.7;;;;;;;23.47;45.75098;955.798;;;;
2020/08/25 14:20:00;;;;;;;5;1.1;;;;;;;23.64;45.64941;955.6854;;;;
2020/08/25 14:22:24;;;;;;;1.1;0.7;;;;;;;23.97;46.59766;955.5402;;;;
2020/08/25 14:24:49;;;;;;;2.4;0.8;;;;;;;23.87;46.84766;955.2852;;;;
2020/08/25 14:27:14;;;;;;;2.1;0.7;;;;;;;23.81;48.54883;955.2511;;;;
2020/08/25 14:29:39;;;;;;;2.9;0.7;;;;;;;23.95;48.20801;955.2274;;;;
2020/08/25 14:32:04;;;;;;;2.5;0.7;;;;;;;24.01;46.96973;955.2219;;;;
2020/08/25 14:34:29;;;;;;;3.5;0.9;;;;;;;24.17;45.00293;955.3373;;;;
2020/08/25 14:36:55;;;;;;;2.8;0.9;;;;;;;24.66;44.75586;955.348;;;;